createdAt,value
2022-08-22T00:00:13.473Z,99.90
2022-08-22T00:02:42.424Z,96.70
2022-08-22T00:03:00.778Z,99.90
2022-08-22T00:03:11.845Z,99.90
2022-08-22T00:03:17.417Z,99.90
2022-08-22T00:06:02.522Z,99.90
2022-08-22T00:08:43.452Z,99.90
2022-08-22T00:11:25.018Z,99.90
2022-08-22T00:14:02.253Z,99.90
2022-08-22T00:16:40.162Z,99.90
2022-08-22T00:19:21.299Z,99.90
2022-08-22T00:21:58.673Z,99.90
2022-08-22T00:24:34.706Z,99.90
2022-08-22T00:27:10.477Z,99.90
2022-08-22T00:29:45.754Z,99.90
2022-08-22T00:32:21.672Z,99.90
2022-08-22T00:35:01.333Z,99.90
2022-08-22T00:37:37.034Z,99.90
2022-08-22T00:40:22.721Z,99.90
2022-08-22T00:43:21.119Z,99.90
2022-08-22T00:46:10.390Z,99.90
2022-08-22T00:49:14.253Z,99.90
2022-08-22T00:52:24.060Z,99.90
2022-08-22T00:55:22.840Z,99.90
2022-08-22T00:58:16.995Z,99.90
2022-08-22T01:00:53.546Z,99.90
2022-08-22T01:03:52.550Z,99.90
2022-08-22T01:06:34.226Z,99.90
2022-08-22T01:09:13.234Z,99.90
2022-08-22T01:12:11.855Z,99.90
2022-08-22T01:14:48.018Z,99.90
2022-08-22T01:18:01.785Z,99.90
2022-08-22T01:21:24.412Z,99.90
2022-08-22T01:25:04.497Z,99.90
2022-08-22T01:28:54.160Z,99.90
2022-08-22T01:32:40.590Z,99.90
2022-08-22T01:36:06.627Z,99.90
2022-08-22T01:39:14.910Z,99.90
2022-08-22T01:42:22.199Z,99.90
2022-08-22T01:45:37.979Z,99.90
2022-08-22T01:48:14.173Z,99.90
2022-08-22T01:50:50.505Z,99.90
2022-08-22T01:53:24.829Z,99.90
2022-08-22T01:56:03.077Z,99.90
2022-08-22T01:58:37.195Z,99.90
2022-08-22T02:01:23.846Z,99.90
2022-08-22T02:04:03.654Z,99.90
2022-08-22T02:06:43.872Z,99.90
2022-08-22T02:09:28.723Z,99.90
2022-08-22T02:12:21.362Z,99.90
2022-08-22T02:15:07.134Z,99.90
2022-08-22T02:17:55.799Z,99.90
2022-08-22T02:20:30.526Z,99.90
2022-08-22T02:23:15.874Z,99.90
2022-08-22T02:25:53.402Z,99.90
2022-08-22T02:28:38.961Z,99.90
2022-08-22T02:31:35.550Z,99.90
2022-08-22T02:34:22.901Z,99.90
2022-08-22T02:36:58.235Z,99.90
2022-08-22T02:39:36.773Z,99.90
2022-08-22T02:42:21.311Z,99.90
2022-08-22T02:45:01.293Z,99.90
2022-08-22T02:47:40.987Z,99.90
2022-08-22T02:50:23.026Z,99.90
2022-08-22T02:52:59.015Z,99.90
2022-08-22T02:55:45.064Z,99.90
2022-08-22T02:58:26.264Z,99.90
2022-08-22T03:01:22.972Z,99.90
2022-08-22T03:03:53.804Z,99.90
2022-08-22T03:06:41.676Z,99.90
2022-08-22T03:09:27.134Z,99.90
2022-08-22T03:12:13.803Z,99.90
2022-08-22T03:14:51.642Z,99.90
2022-08-22T03:17:31.773Z,99.90
2022-08-22T03:20:08.190Z,99.90
2022-08-22T03:22:48.288Z,99.90
2022-08-22T03:25:30.680Z,99.90
2022-08-22T03:28:05.318Z,99.90
2022-08-22T03:30:39.455Z,99.90
2022-08-22T03:33:19.875Z,99.90
2022-08-22T03:36:05.160Z,99.90
2022-08-22T03:38:50.723Z,99.90
2022-08-22T03:42:17.905Z,99.90
2022-08-22T03:45:38.505Z,99.90
2022-08-22T03:48:31.052Z,99.90
2022-08-22T03:51:48.019Z,99.90
2022-08-22T03:54:58.273Z,99.90
2022-08-22T03:58:11.965Z,99.90
2022-08-22T04:01:21.869Z,99.90
2022-08-22T04:04:26.602Z,99.90
2022-08-22T04:07:28.336Z,99.90
2022-08-22T04:10:44.074Z,99.90
2022-08-22T04:13:50.952Z,99.90
2022-08-22T04:17:10.087Z,99.90
2022-08-22T04:20:07.112Z,99.90
2022-08-22T04:23:23.466Z,99.90
2022-08-22T04:25:58.179Z,99.90
2022-08-22T04:28:37.350Z,99.90
2022-08-22T04:31:11.776Z,99.90
2022-08-22T04:33:49.552Z,99.90
2022-08-22T04:36:26.359Z,99.90
2022-08-22T04:39:02.113Z,99.90
2022-08-22T04:41:48.651Z,99.90
2022-08-22T04:44:25.281Z,99.90
2022-08-22T04:47:08.290Z,99.90
2022-08-22T04:49:52.604Z,99.90
2022-08-22T04:52:36.324Z,99.90
2022-08-22T04:55:20.508Z,99.90
2022-08-22T04:57:58.766Z,99.90
2022-08-22T05:00:41.905Z,99.90
2022-08-22T05:03:16.738Z,99.90
2022-08-22T05:05:50.410Z,99.90
2022-08-22T05:08:26.283Z,99.90
2022-08-22T05:10:56.247Z,99.90
2022-08-22T05:13:32.538Z,99.90
2022-08-22T05:16:06.821Z,99.90
2022-08-22T05:18:42.210Z,99.90
2022-08-22T05:21:14.368Z,99.90
2022-08-22T05:23:50.818Z,99.90
2022-08-22T05:26:21.456Z,99.90
2022-08-22T05:28:54.768Z,99.90
2022-08-22T05:31:30.383Z,99.90
2022-08-22T05:34:05.702Z,99.90
2022-08-22T05:36:41.868Z,99.90
2022-08-22T05:39:15.194Z,99.90
2022-08-22T05:41:45.021Z,99.90
2022-08-22T05:44:21.858Z,99.90
2022-08-22T05:46:56.459Z,99.90
2022-08-22T05:49:37.374Z,99.90
2022-08-22T05:52:17.793Z,99.90
2022-08-22T05:54:57.322Z,99.90
2022-08-22T05:57:32.721Z,99.90
2022-08-22T06:00:10.065Z,99.90
2022-08-22T06:02:54.587Z,99.90
2022-08-22T06:05:29.193Z,99.90
2022-08-22T06:08:07.542Z,99.90
2022-08-22T06:10:44.866Z,99.90
2022-08-22T06:13:24.716Z,99.90
2022-08-22T06:16:09.382Z,99.90
2022-08-22T06:18:41.609Z,99.90
2022-08-22T06:21:18.324Z,99.90
2022-08-22T06:23:53.519Z,99.90
2022-08-22T06:26:24.471Z,99.90
2022-08-22T06:28:57.851Z,99.90
2022-08-22T06:31:32.803Z,99.90
2022-08-22T06:34:11.379Z,99.90
2022-08-22T06:36:45.181Z,99.90
2022-08-22T06:39:23.554Z,99.90
2022-08-22T06:41:57.293Z,99.90
2022-08-22T06:44:32.463Z,99.90
2022-08-22T06:47:04.815Z,99.90
2022-08-22T06:49:36.867Z,99.90
2022-08-22T06:52:13.588Z,99.90
2022-08-22T06:54:48.172Z,99.90
2022-08-22T06:57:32.920Z,99.90
2022-08-22T07:00:07.584Z,99.90
2022-08-22T07:02:41.612Z,99.90
2022-08-22T07:05:18.491Z,99.90
2022-08-22T07:07:48.128Z,99.90
2022-08-22T07:10:20.045Z,99.90
2022-08-22T07:12:53.463Z,99.90
2022-08-22T07:15:38.061Z,99.90
2022-08-22T07:18:17.414Z,99.90
2022-08-22T07:20:55.057Z,99.90
2022-08-22T07:23:35.071Z,99.90
2022-08-22T07:26:20.879Z,99.90
2022-08-22T07:28:58.681Z,99.90
2022-08-22T07:31:38.931Z,99.90
2022-08-22T07:34:38.781Z,99.90
2022-08-22T07:37:16.641Z,99.90
2022-08-22T07:39:54.884Z,99.90
2022-08-22T07:42:37.044Z,99.90
2022-08-22T07:45:13.532Z,99.90
2022-08-22T07:48:04.560Z,99.90
2022-08-22T07:50:39.369Z,99.90
2022-08-22T07:53:21.371Z,99.90
2022-08-22T07:55:52.926Z,99.90
2022-08-22T07:58:27.806Z,99.90
2022-08-22T08:00:58.273Z,99.90
2022-08-22T08:03:30.476Z,99.90
2022-08-22T08:06:01.932Z,99.90
2022-08-22T08:08:36.470Z,99.90
2022-08-22T08:11:10.554Z,99.90
2022-08-22T08:13:47.734Z,99.90
2022-08-22T08:16:21.029Z,99.90
2022-08-22T08:18:54.404Z,99.90
2022-08-22T08:21:30.028Z,99.90
2022-08-22T08:24:01.918Z,99.90
2022-08-22T08:26:36.936Z,99.90
2022-08-22T08:29:08.291Z,99.90
2022-08-22T08:31:44.785Z,99.90
2022-08-22T08:34:22.732Z,99.90
2022-08-22T08:36:56.588Z,99.90
2022-08-22T08:39:35.228Z,99.90
2022-08-22T08:43:10.890Z,99.90
2022-08-22T08:46:27.198Z,99.90
2022-08-22T08:49:35.021Z,99.90
2022-08-22T08:52:59.531Z,99.90
2022-08-22T08:55:44.377Z,99.90
2022-08-22T08:58:35.986Z,99.90
2022-08-22T09:02:02.939Z,99.90
2022-08-22T09:05:30.044Z,99.90
2022-08-22T09:08:44.967Z,99.90
2022-08-22T09:12:10.755Z,99.90
2022-08-22T09:15:17.412Z,99.90
2022-08-22T09:18:13.363Z,99.90
2022-08-22T09:21:30.554Z,99.90
2022-08-22T09:24:49.204Z,99.90
2022-08-22T09:27:29.850Z,99.90
2022-08-22T09:30:11.636Z,99.90
2022-08-22T09:32:50.391Z,99.90
2022-08-22T09:35:34.884Z,99.90
2022-08-22T09:38:33.070Z,99.90
2022-08-22T09:41:21.640Z,99.90
2022-08-22T09:44:07.558Z,99.90
2022-08-22T09:46:53.858Z,99.90
2022-08-22T09:49:44.724Z,99.90
2022-08-22T09:52:34.098Z,99.90
2022-08-22T09:55:16.167Z,99.90
2022-08-22T09:57:53.584Z,99.90
2022-08-22T10:00:27.010Z,99.90
2022-08-22T10:03:08.742Z,99.90
2022-08-22T10:05:47.484Z,99.90
2022-08-22T10:08:48.827Z,99.90
2022-08-22T10:11:32.152Z,99.90
2022-08-22T10:14:11.700Z,99.90
2022-08-22T10:17:04.716Z,99.90
2022-08-22T10:19:43.893Z,99.90
2022-08-22T10:22:37.859Z,99.90
2022-08-22T10:25:44.953Z,99.90
2022-08-22T10:28:39.993Z,99.90
2022-08-22T10:31:24.100Z,99.90
2022-08-22T10:34:04.216Z,99.90
2022-08-22T10:36:45.977Z,99.90
2022-08-22T10:39:23.929Z,99.90
2022-08-22T10:42:19.432Z,99.90
2022-08-22T10:45:16.401Z,99.90
2022-08-22T10:48:26.440Z,99.90
2022-08-22T10:51:29.098Z,99.90
2022-08-22T10:54:48.285Z,99.90
2022-08-22T10:57:44.373Z,99.90
2022-08-22T11:00:46.591Z,99.90
2022-08-22T11:03:28.022Z,99.90
2022-08-22T11:06:01.855Z,99.90
2022-08-22T11:09:14.919Z,99.90
2022-08-22T11:11:48.851Z,99.90
2022-08-22T11:14:58.249Z,99.90
2022-08-22T11:18:15.927Z,99.90
2022-08-22T11:20:58.113Z,99.90
2022-08-22T11:23:42.098Z,99.90
2022-08-22T11:26:41.676Z,99.00
2022-08-22T11:29:39.620Z,98.70
2022-08-22T11:32:18.669Z,97.80
2022-08-22T11:35:00.112Z,97.90
2022-08-22T11:37:47.294Z,97.40
2022-08-22T11:40:34.402Z,97.40
2022-08-22T11:43:32.550Z,98.20
2022-08-22T11:46:19.830Z,98.80
2022-08-22T11:49:15.659Z,98.70
2022-08-22T11:52:26.304Z,97.90
2022-08-22T11:55:27.552Z,97.90
2022-08-22T11:58:23.343Z,97.40
2022-08-22T12:01:05.015Z,97.10
2022-08-22T12:03:55.678Z,96.70
2022-08-22T12:06:51.721Z,96.60
2022-08-22T12:09:50.546Z,96.20
2022-08-22T12:12:55.269Z,96.20
2022-08-22T12:15:28.842Z,96.10
2022-08-22T12:18:27.691Z,96.30
2022-08-22T12:21:31.166Z,95.60
2022-08-22T12:24:20.989Z,95.30
2022-08-22T12:27:28.735Z,95.20
2022-08-22T12:30:21.740Z,94.90
2022-08-22T12:33:44.623Z,94.90
2022-08-22T12:37:00.788Z,94.20
2022-08-22T12:40:19.166Z,93.00
2022-08-22T12:43:14.816Z,93.80
2022-08-22T12:46:11.862Z,93.60
2022-08-22T12:49:07.452Z,91.70
2022-08-22T12:51:58.063Z,92.00
2022-08-22T12:55:00.620Z,92.20
2022-08-22T12:57:41.697Z,92.70
2022-08-22T13:00:32.724Z,92.60
2022-08-22T13:03:06.413Z,91.90
2022-08-22T13:05:40.862Z,91.20
2022-08-22T13:08:17.741Z,90.80
2022-08-22T13:10:51.558Z,90.30
2022-08-22T13:13:37.163Z,91.10
2022-08-22T13:16:11.742Z,90.20
2022-08-22T13:18:53.527Z,90.70
2022-08-22T13:21:31.423Z,90.90
2022-08-22T13:24:10.500Z,91.30
2022-08-22T13:26:49.557Z,91.10
2022-08-22T13:29:26.794Z,90.90
2022-08-22T13:32:01.988Z,89.00
2022-08-22T13:34:43.490Z,89.90
2022-08-22T13:37:17.532Z,90.40
2022-08-22T13:39:54.900Z,91.00
2022-08-22T13:42:30.928Z,91.20
2022-08-22T13:45:05.762Z,91.80
2022-08-22T13:47:48.963Z,91.90
2022-08-22T13:50:23.370Z,92.40
2022-08-22T13:53:02.933Z,91.90
2022-08-22T13:55:42.981Z,92.00
2022-08-22T13:58:24.853Z,91.90
2022-08-22T14:01:28.532Z,91.60
2022-08-22T14:04:05.473Z,92.20
2022-08-22T14:07:23.791Z,92.50
2022-08-22T14:09:59.831Z,92.30
2022-08-22T14:12:50.105Z,92.40
2022-08-22T14:15:33.948Z,92.00
2022-08-22T14:18:19.349Z,92.40
2022-08-22T14:20:49.851Z,92.30
2022-08-22T14:23:27.325Z,92.50
2022-08-22T14:25:57.669Z,92.70
2022-08-22T14:28:35.582Z,92.40
2022-08-22T14:31:13.585Z,91.80
2022-08-22T14:33:49.159Z,91.30
2022-08-22T14:36:24.725Z,91.30
2022-08-22T14:39:00.045Z,91.30
2022-08-22T14:41:52.648Z,91.30
2022-08-22T14:44:30.771Z,91.80
2022-08-22T14:47:04.707Z,92.40
2022-08-22T14:49:55.567Z,92.30
2022-08-22T14:52:35.486Z,91.50
2022-08-22T14:55:17.748Z,91.20
2022-08-22T14:58:03.417Z,91.10
2022-08-22T15:00:40.025Z,90.80
2022-08-22T15:03:19.045Z,91.00
2022-08-22T15:05:54.872Z,90.60
2022-08-22T15:08:32.590Z,90.90
2022-08-22T15:11:21.938Z,90.70
2022-08-22T15:13:58.365Z,90.00
2022-08-22T15:16:40.422Z,90.80
2022-08-22T15:19:27.371Z,91.10
2022-08-22T15:22:13.610Z,91.50
2022-08-22T15:24:50.470Z,90.80
2022-08-22T15:27:27.736Z,90.60
2022-08-22T15:29:59.929Z,90.90
2022-08-22T15:32:33.803Z,91.30
2022-08-22T15:35:15.280Z,91.30
2022-08-22T15:38:00.266Z,90.90
2022-08-22T15:40:40.861Z,90.90
2022-08-22T15:43:22.202Z,90.60
2022-08-22T15:46:18.170Z,90.50
2022-08-22T15:49:00.979Z,90.70
2022-08-22T15:51:39.766Z,90.80
2022-08-22T15:54:25.011Z,90.80
2022-08-22T15:57:16.507Z,91.00
2022-08-22T15:59:56.049Z,91.20
2022-08-22T16:02:34.919Z,91.10
2022-08-22T16:05:26.832Z,91.10
2022-08-22T16:08:04.879Z,91.30
2022-08-22T16:10:39.904Z,91.10
2022-08-22T16:13:39.686Z,91.20
2022-08-22T16:16:34.912Z,90.80
2022-08-22T16:19:19.764Z,91.10
2022-08-22T16:22:10.470Z,91.50
2022-08-22T16:25:10.424Z,91.00
2022-08-22T16:27:56.187Z,90.80
2022-08-22T16:30:37.352Z,90.50
2022-08-22T16:33:08.333Z,90.50
2022-08-22T16:36:41.168Z,90.60
2022-08-22T16:39:33.325Z,90.30
2022-08-22T16:42:27.645Z,90.40
2022-08-22T16:45:10.871Z,90.30
2022-08-22T16:47:56.652Z,90.00
2022-08-22T16:50:37.279Z,90.20
2022-08-22T16:53:38.427Z,89.90
2022-08-22T16:56:27.904Z,90.20
2022-08-22T16:59:38.654Z,90.20
2022-08-22T17:02:41.817Z,90.50
2022-08-22T17:05:46.765Z,90.20
2022-08-22T17:08:39.981Z,90.40
2022-08-22T17:11:26.450Z,90.30
2022-08-22T17:14:17.936Z,90.40
2022-08-22T17:17:09.357Z,90.00
2022-08-22T17:19:58.294Z,90.50
2022-08-22T17:22:37.348Z,89.90
2022-08-22T17:25:23.785Z,90.00
2022-08-22T17:28:13.891Z,90.20
2022-08-22T17:30:56.661Z,90.20
2022-08-22T17:33:56.986Z,90.30
2022-08-22T17:36:39.495Z,90.40
2022-08-22T17:39:29.277Z,90.40
2022-08-22T17:42:28.002Z,90.20
2022-08-22T17:45:09.062Z,90.30
2022-08-22T17:47:47.582Z,90.60
2022-08-22T17:50:28.049Z,90.50
2022-08-22T17:53:03.070Z,90.80
2022-08-22T17:55:52.333Z,90.80
2022-08-22T17:58:33.591Z,90.90
2022-08-22T18:01:17.763Z,90.80
2022-08-22T18:03:53.488Z,91.10
2022-08-22T18:06:28.589Z,91.40
2022-08-22T18:09:16.616Z,91.30
2022-08-22T18:11:52.937Z,91.60
2022-08-22T18:14:31.211Z,91.60
2022-08-22T18:17:01.899Z,91.70
2022-08-22T18:19:44.261Z,91.80
2022-08-22T18:22:24.350Z,91.80
2022-08-22T18:24:59.282Z,91.90
2022-08-22T18:27:39.589Z,91.80
2022-08-22T18:30:22.301Z,91.90
2022-08-22T18:33:00.246Z,92.00
2022-08-22T18:35:40.327Z,92.10
2022-08-22T18:38:20.748Z,92.20
2022-08-22T18:41:06.581Z,92.30
2022-08-22T18:43:40.579Z,92.80
2022-08-22T18:46:34.471Z,93.40
2022-08-22T18:49:45.635Z,93.50
2022-08-22T18:52:40.877Z,93.30
2022-08-22T18:55:27.990Z,93.50
2022-08-22T18:58:48.622Z,93.90
2022-08-22T19:01:44.208Z,94.00
2022-08-22T19:04:57.717Z,94.20
2022-08-22T19:08:19.216Z,94.70
2022-08-22T19:11:03.003Z,95.20
2022-08-22T19:13:58.065Z,95.20
2022-08-22T19:17:06.702Z,95.70
2022-08-22T19:20:06.250Z,95.60
2022-08-22T19:22:37.198Z,95.70
2022-08-22T19:25:19.929Z,95.90
2022-08-22T19:28:26.772Z,95.50
2022-08-22T19:31:23.872Z,95.90
2022-08-22T19:34:17.848Z,96.20
2022-08-22T19:37:33.341Z,96.50
2022-08-22T19:40:07.655Z,96.80
2022-08-22T19:42:41.382Z,96.80
2022-08-22T19:45:25.664Z,97.20
2022-08-22T19:48:00.982Z,97.40
2022-08-22T19:50:35.244Z,97.50
2022-08-22T19:53:28.382Z,97.80
2022-08-22T19:56:10.904Z,98.00
2022-08-22T19:59:00.898Z,98.40
2022-08-22T20:01:47.567Z,97.80
2022-08-22T20:04:56.331Z,97.60
2022-08-22T20:07:39.682Z,98.00
2022-08-22T20:10:24.639Z,98.20
2022-08-22T20:13:05.612Z,98.30
2022-08-22T20:16:13.241Z,98.50
2022-08-22T20:19:07.129Z,98.60
2022-08-22T20:21:58.004Z,99.00
2022-08-22T20:24:39.563Z,99.20
2022-08-22T20:27:16.524Z,99.20
2022-08-22T20:29:53.045Z,99.10
2022-08-22T20:32:25.933Z,99.20
2022-08-22T20:34:59.899Z,99.10
2022-08-22T20:37:56.133Z,99.30
2022-08-22T20:40:55.652Z,99.30
2022-08-22T20:43:35.229Z,99.90
2022-08-22T20:46:38.278Z,99.90
2022-08-22T20:49:22.423Z,99.90
2022-08-22T20:51:55.841Z,99.90
2022-08-22T20:54:27.882Z,99.90
2022-08-22T20:57:01.426Z,99.90
2022-08-22T20:59:38.177Z,99.90
2022-08-22T21:02:16.208Z,99.90
2022-08-22T21:04:55.047Z,99.90
2022-08-22T21:07:31.234Z,99.90
2022-08-22T21:10:23.353Z,99.90
2022-08-22T21:13:08.135Z,99.90
2022-08-22T21:15:43.313Z,99.90
2022-08-22T21:18:14.887Z,99.90
2022-08-22T21:20:43.962Z,99.90
2022-08-22T21:23:15.967Z,99.90
2022-08-22T21:25:56.949Z,99.90
2022-08-22T21:28:33.060Z,99.90
2022-08-22T21:31:14.425Z,99.90
2022-08-22T21:33:48.762Z,99.90
2022-08-22T21:36:21.203Z,99.90
2022-08-22T21:38:54.181Z,99.90
2022-08-22T21:41:33.628Z,99.90
2022-08-22T21:44:29.875Z,99.90
2022-08-22T21:47:19.093Z,99.90
2022-08-22T21:50:04.220Z,99.90
2022-08-22T21:52:36.543Z,99.90
2022-08-22T21:55:26.744Z,99.90
2022-08-22T21:58:13.586Z,99.90
2022-08-22T22:01:04.973Z,99.90
2022-08-22T22:03:40.939Z,99.90
2022-08-22T22:06:09.994Z,99.90
2022-08-22T22:08:39.149Z,99.90
2022-08-22T22:11:14.904Z,99.90
2022-08-22T22:13:44.163Z,99.90
2022-08-22T22:16:13.917Z,99.90
2022-08-22T22:18:44.393Z,99.90
2022-08-22T22:21:13.458Z,99.90
2022-08-22T22:23:42.618Z,99.90
2022-08-22T22:26:12.163Z,99.90
2022-08-22T22:28:47.746Z,99.90
2022-08-22T22:31:18.263Z,99.90
2022-08-22T22:33:48.730Z,99.90
2022-08-22T22:36:25.710Z,99.90
2022-08-22T22:38:55.645Z,99.90
2022-08-22T22:41:25.747Z,99.90
2022-08-22T22:43:56.168Z,99.90
2022-08-22T22:46:27.113Z,99.90
2022-08-22T22:48:58.750Z,99.90
2022-08-22T22:51:28.029Z,99.90
2022-08-22T22:53:57.844Z,99.90
2022-08-22T22:56:27.058Z,99.90
2022-08-22T22:58:58.960Z,99.90
2022-08-22T23:01:30.318Z,99.90
2022-08-22T23:04:05.579Z,99.90
2022-08-22T23:06:35.658Z,99.90
2022-08-22T23:09:05.237Z,99.90
2022-08-22T23:11:34.297Z,99.90
2022-08-22T23:14:03.537Z,99.90
2022-08-22T23:16:37.173Z,99.90
2022-08-22T23:19:11.169Z,99.90
2022-08-22T23:21:41.554Z,99.90
2022-08-22T23:24:13.498Z,99.90
2022-08-22T23:26:43.606Z,99.90
2022-08-22T23:29:13.199Z,99.90
2022-08-22T23:31:45.114Z,99.90
2022-08-22T23:34:21.629Z,99.90
2022-08-22T23:36:53.902Z,99.90
2022-08-22T23:39:25.481Z,99.90
2022-08-22T23:41:55.778Z,99.90
2022-08-22T23:44:27.790Z,99.90
2022-08-22T23:46:57.649Z,99.90
2022-08-22T23:49:28.995Z,99.90
2022-08-22T23:51:59.818Z,99.90
2022-08-22T23:54:29.110Z,99.90
2022-08-22T23:57:00.929Z,99.90
2022-08-22T23:59:33.541Z,99.90
